Furenas — OZ2085 — position and weather

sailwx.info

Track history (hours):
 
Tides and Currents Weather Stations Pressure Air Temp Water Temp Dewpoint Dewpoint Depression Visibility Wind Speed Wind Dir Waves Ship Positions

Furenas

Last reported at 2014-Aug-22 22:10 UTC. Time now 2014-Aug-23 03:33 UTC.
Position N 55°54' W 004°24'.

Length 137 m; draft 7.8 m.

Type: Tanker. MMSI: 231734000.

Date/timePositionNaut miles runAvg speedWind from/ knotsBaromVisibWave heightAir tempDewpointWater temp
2014-Aug-22 22:10N 55°54' W 004°24'1 0.9
2014-Aug-22 21:33N 55°54' W 004°25'8 8.2
2014-Aug-22 20:34N 55°56' W 004°38'9 9.0
2014-Aug-22 19:33N 55°56' W 004°54'1312.9
2014-Aug-22 18:33N 55°43' W 004°59'34 9.8
2014-Aug-22 15:07N 55°14' W 005°29'711.7
2014-Aug-22 14:33N 55°14' W 005°40'1110.8
2014-Aug-22 13:34N 55°15' W 005°59'1010.1
2014-Aug-22 12:34N 55°22' W 006°12'1111.2
2014-Aug-22 11:34N 55°28' W 006°29'1212.1
2014-Aug-22 10:33N 55°35' W 006°46'1211.5
2014-Aug-22 09:33N 55°44' W 006°59'14210.7
2014-Aug-21 20:17N 58°04' W 006°10'811.3
2014-Aug-21 19:33N 58°10' W 005°60'1111.4
2014-Aug-21 18:33N 58°18' W 005°46'5510.3
2014-Aug-21 13:15N 58°43' W 004°12'811.5
2014-Aug-21 12:33N 58°43' W 003°56'1211.8
2014-Aug-21 11:33N 58°43' W 003°34'1414.5
2014-Aug-21 10:33N 58°43' W 003°06'45011.2
2014-Aug-19 18:18N 58°16' E 011°14'4 0.1
2014-Aug-18 17:24N 58°18' E 011°20'7 3.5
2014-Aug-18 15:18N 58°13' E 011°09'810.5
2014-Aug-18 14:33N 58°09' E 010°57'2311.3
2014-Aug-18 12:33N 57°56' E 010°22'1111.3
2014-Aug-18 11:34N 57°50' E 010°05'7211.6
2014-Aug-18 05:21N 57°05' E 008°18'19211.9
2014-Aug-17 13:14N 54°23' E 005°17'812.1
2014-Aug-17 12:33N 54°16' E 005°08'1212.2
2014-Aug-17 11:33N 54°06' E 004°56'2210.9
2014-Aug-17 09:33N 53°45' E 004°52'1111.4
2014-Aug-17 08:33N 53°33' E 004°49'1212.1
2014-Aug-17 07:33N 53°22' E 004°41'2411.7
2014-Aug-17 05:32N 53°01' E 004°23'1212.1
2014-Aug-17 04:33N 52°51' E 004°13'1211.7
2014-Aug-17 03:33N 52°41' E 004°02'1811.8
2014-Aug-17 02:04N 52°29' E 003°42'611.4
2014-Aug-17 01:33N 52°25' E 003°35'6111.7
2014-Aug-16 20:21N 51°39' E 002°29'1011.8
2014-Aug-16 19:33N 51°32' E 002°19'1212.4
2014-Aug-16 18:33N 51°21' E 002°09'1312.4
2014-Aug-16 17:32N 51°11' E 001°57'1313.8
2014-Aug-16 16:33N 51°03' E 001°40'5112.3
2014-Aug-16 12:27N 50°26' E 000°45'1314.4
2014-Aug-16 11:33N 50°23' E 000°25'  
2014-Aug-14 03:27N 50°28' W 000°30'3013.6
2014-Aug-14 01:15N 50°35' E 000°16'811.7
2014-Aug-14 00:33N 50°37' E 000°28'1111.0
2014-Aug-13 23:34N 50°42' E 000°44'1111.3
2014-Aug-13 22:33N 50°48' E 000°59'1913.7
2014-Aug-13 21:10N 50°59' E 001°23'915.5
2014-Aug-13 20:33N 51°06' E 001°33'1414.4
2014-Aug-13 19:33N 51°17' E 001°49'1312.6
2014-Aug-13 18:33N 51°27' E 002°01'1111.3
2014-Aug-13 17:33N 51°35' E 002°13'1111.0
2014-Aug-13 16:33N 51°43' E 002°25'5410.8
2014-Aug-13 11:32N 52°03' E 003°46'1010.7
2014-Aug-13 10:33N 51°60' E 004°02'  
Track history (hours):
 
Tides and Currents Weather Stations Pressure Air Temp Water Temp Dewpoint Dewpoint Depression Visibility Wind Speed Wind Dir Waves Ship Positions

Furenas

Last reported at 2014-Aug-22 22:10 UTC. Time now 2014-Aug-23 03:33 UTC.
Position N 55°54' W 004°24'.

Length 137 m; draft 7.8 m.

Type: Tanker. MMSI: 231734000.

Date/timePositionNaut miles runAvg speedWind from/ knotsBaromVisibWave heightAir tempDewpointWater temp
2014-Aug-22 22:10N 55°54' W 004°24'1 0.9
2014-Aug-22 21:33N 55°54' W 004°25'8 8.2
2014-Aug-22 20:34N 55°56' W 004°38'9 9.0
2014-Aug-22 19:33N 55°56' W 004°54'1312.9
2014-Aug-22 18:33N 55°43' W 004°59'34 9.8
2014-Aug-22 15:07N 55°14' W 005°29'711.7
2014-Aug-22 14:33N 55°14' W 005°40'1110.8
2014-Aug-22 13:34N 55°15' W 005°59'1010.1
2014-Aug-22 12:34N 55°22' W 006°12'1111.2
2014-Aug-22 11:34N 55°28' W 006°29'1212.1
2014-Aug-22 10:33N 55°35' W 006°46'1211.5
2014-Aug-22 09:33N 55°44' W 006°59'14210.7
2014-Aug-21 20:17N 58°04' W 006°10'811.3
2014-Aug-21 19:33N 58°10' W 005°60'1111.4
2014-Aug-21 18:33N 58°18' W 005°46'5510.3
2014-Aug-21 13:15N 58°43' W 004°12'811.5
2014-Aug-21 12:33N 58°43' W 003°56'1211.8
2014-Aug-21 11:33N 58°43' W 003°34'1414.5
2014-Aug-21 10:33N 58°43' W 003°06'45011.2
2014-Aug-19 18:18N 58°16' E 011°14'4 0.1
2014-Aug-18 17:24N 58°18' E 011°20'7 3.5
2014-Aug-18 15:18N 58°13' E 011°09'810.5
2014-Aug-18 14:33N 58°09' E 010°57'2311.3
2014-Aug-18 12:33N 57°56' E 010°22'1111.3
2014-Aug-18 11:34N 57°50' E 010°05'7211.6
2014-Aug-18 05:21N 57°05' E 008°18'19211.9
2014-Aug-17 13:14N 54°23' E 005°17'812.1
2014-Aug-17 12:33N 54°16' E 005°08'1212.2
2014-Aug-17 11:33N 54°06' E 004°56'2210.9
2014-Aug-17 09:33N 53°45' E 004°52'1111.4
2014-Aug-17 08:33N 53°33' E 004°49'1212.1
2014-Aug-17 07:33N 53°22' E 004°41'2411.7
2014-Aug-17 05:32N 53°01' E 004°23'1212.1
2014-Aug-17 04:33N 52°51' E 004°13'1211.7
2014-Aug-17 03:33N 52°41' E 004°02'1811.8
2014-Aug-17 02:04N 52°29' E 003°42'611.4
2014-Aug-17 01:33N 52°25' E 003°35'6111.7
2014-Aug-16 20:21N 51°39' E 002°29'1011.8
2014-Aug-16 19:33N 51°32' E 002°19'1212.4
2014-Aug-16 18:33N 51°21' E 002°09'1312.4
2014-Aug-16 17:32N 51°11' E 001°57'1313.8
2014-Aug-16 16:33N 51°03' E 001°40'5112.3
2014-Aug-16 12:27N 50°26' E 000°45'1314.4
2014-Aug-16 11:33N 50°23' E 000°25'  
2014-Aug-14 03:27N 50°28' W 000°30'3013.6
2014-Aug-14 01:15N 50°35' E 000°16'811.7
2014-Aug-14 00:33N 50°37' E 000°28'1111.0
2014-Aug-13 23:34N 50°42' E 000°44'1111.3
2014-Aug-13 22:33N 50°48' E 000°59'1913.7
2014-Aug-13 21:10N 50°59' E 001°23'915.5
2014-Aug-13 20:33N 51°06' E 001°33'1414.4
2014-Aug-13 19:33N 51°17' E 001°49'1312.6
2014-Aug-13 18:33N 51°27' E 002°01'1111.3
2014-Aug-13 17:33N 51°35' E 002°13'1111.0
2014-Aug-13 16:33N 51°43' E 002°25'5410.8
2014-Aug-13 11:32N 52°03' E 003°46'1010.7
2014-Aug-13 10:33N 51°60' E 004°02'  

Dump ship's entire track history